sensor_id;sensor_type;location;lat;lon;timestamp;temperature;humidity
12746;DHT22;6437;53.686;10.030;2022-12-07T00:00:30;4.50;99.90
12746;DHT22;6437;53.686;10.030;2022-12-07T00:03:32;4.50;99.90
12746;DHT22;6437;53.686;10.030;2022-12-07T00:06:34;4.50;99.90
12746;DHT22;6437;53.686;10.030;2022-12-07T00:09:36;4.60;99.90
12746;DHT22;6437;53.686;10.030;2022-12-07T00:12:39;4.60;99.90
12746;DHT22;6437;53.686;10.030;2022-12-07T00:15:42;5.00;99.90
12746;DHT22;6437;53.686;10.030;2022-12-07T00:18:44;4.60;99.90
12746;DHT22;6437;53.686;10.030;2022-12-07T00:21:45;4.60;99.90
12746;DHT22;6437;53.686;10.030;2022-12-07T00:24:47;4.60;99.90
12746;DHT22;6437;53.686;10.030;2022-12-07T00:27:49;4.60;99.90
12746;DHT22;6437;53.686;10.030;2022-12-07T00:30:52;4.60;99.90
12746;DHT22;6437;53.686;10.030;2022-12-07T00:33:53;4.60;99.90
12746;DHT22;6437;53.686;10.030;2022-12-07T00:36:55;4.60;99.90
12746;DHT22;6437;53.686;10.030;2022-12-07T00:39:57;4.60;99.90
12746;DHT22;6437;53.686;10.030;2022-12-07T00:42:58;4.60;99.90
12746;DHT22;6437;53.686;10.030;2022-12-07T00:46:01;4.60;99.90
12746;DHT22;6437;53.686;10.030;2022-12-07T00:49:03;4.60;99.90
12746;DHT22;6437;53.686;10.030;2022-12-07T00:52:04;4.60;99.90
12746;DHT22;6437;53.686;10.030;2022-12-07T00:55:06;4.70;99.90
12746;DHT22;6437;53.686;10.030;2022-12-07T00:58:08;4.70;99.90
12746;DHT22;6437;53.686;10.030;2022-12-07T01:01:11;4.70;99.90
12746;DHT22;6437;53.686;10.030;2022-12-07T01:04:13;4.70;99.90
12746;DHT22;6437;53.686;10.030;2022-12-07T01:07:14;4.70;99.90
12746;DHT22;6437;53.686;10.030;2022-12-07T01:10:16;4.70;99.90
12746;DHT22;6437;53.686;10.030;2022-12-07T01:13:18;4.70;99.90
12746;DHT22;6437;53.686;10.030;2022-12-07T01:16:21;4.80;99.90
12746;DHT22;6437;53.686;10.030;2022-12-07T01:19:23;4.80;99.90
12746;DHT22;6437;53.686;10.030;2022-12-07T01:22:25;4.80;99.90
12746;DHT22;6437;53.686;10.030;2022-12-07T01:25:27;4.80;99.90
12746;DHT22;6437;53.686;10.030;2022-12-07T01:28:28;4.80;99.90
12746;DHT22;6437;53.686;10.030;2022-12-07T01:31:32;4.80;99.90
12746;DHT22;6437;53.686;10.030;2022-12-07T01:34:33;4.80;99.90
12746;DHT22;6437;53.686;10.030;2022-12-07T01:37:35;4.40;99.90
12746;DHT22;6437;53.686;10.030;2022-12-07T01:40:37;4.80;99.90
12746;DHT22;6437;53.686;10.030;2022-12-07T01:44:06;4.80;99.90
12746;DHT22;6437;53.686;10.030;2022-12-07T01:47:04;4.80;99.90
12746;DHT22;6437;53.686;10.030;2022-12-07T01:50:06;5.50;99.90
12746;DHT22;6437;53.686;10.030;2022-12-07T01:53:09;4.80;99.90
12746;DHT22;6437;53.686;10.030;2022-12-07T01:56:12;4.80;99.90
12746;DHT22;6437;53.686;10.030;2022-12-07T01:59:16;4.80;99.90
12746;DHT22;6437;53.686;10.030;2022-12-07T02:02:22;4.80;99.90
12746;DHT22;6437;53.686;10.030;2022-12-07T02:05:24;4.80;99.90
12746;DHT22;6437;53.686;10.030;2022-12-07T02:08:26;4.80;99.90
12746;DHT22;6437;53.686;10.030;2022-12-07T02:11:28;4.80;99.90
12746;DHT22;6437;53.686;10.030;2022-12-07T02:14:30;4.80;99.90
12746;DHT22;6437;53.686;10.030;2022-12-07T02:17:35;4.80;99.90
12746;DHT22;6437;53.686;10.030;2022-12-07T02:20:39;4.70;99.90
12746;DHT22;6437;53.686;10.030;2022-12-07T02:24:03;4.80;99.90
12746;DHT22;6437;53.686;10.030;2022-12-07T02:27:19;4.70;99.90
12746;DHT22;6437;53.686;10.030;2022-12-07T02:30:26;4.70;99.90
12746;DHT22;6437;53.686;10.030;2022-12-07T02:33:31;4.80;99.90
12746;DHT22;6437;53.686;10.030;2022-12-07T02:36:34;4.70;99.90
12746;DHT22;6437;53.686;10.030;2022-12-07T02:39:39;4.70;99.90
12746;DHT22;6437;53.686;10.030;2022-12-07T02:42:43;4.70;99.90
12746;DHT22;6437;53.686;10.030;2022-12-07T02:45:47;4.70;99.90
12746;DHT22;6437;53.686;10.030;2022-12-07T02:48:49;4.70;99.90
12746;DHT22;6437;53.686;10.030;2022-12-07T02:51:52;4.70;99.90
12746;DHT22;6437;53.686;10.030;2022-12-07T02:54:54;4.60;99.90
12746;DHT22;6437;53.686;10.030;2022-12-07T02:58:08;4.70;99.90
12746;DHT22;6437;53.686;10.030;2022-12-07T03:01:18;4.60;99.90
12746;DHT22;6437;53.686;10.030;2022-12-07T03:04:28;4.60;99.90
12746;DHT22;6437;53.686;10.030;2022-12-07T03:07:35;4.60;99.90
12746;DHT22;6437;53.686;10.030;2022-12-07T03:10:40;4.50;99.90
12746;DHT22;6437;53.686;10.030;2022-12-07T03:13:45;4.50;99.90
12746;DHT22;6437;53.686;10.030;2022-12-07T03:16:52;4.50;99.90
12746;DHT22;6437;53.686;10.030;2022-12-07T03:19:58;4.50;99.90
12746;DHT22;6437;53.686;10.030;2022-12-07T03:23:00;4.40;99.90
12746;DHT22;6437;53.686;10.030;2022-12-07T03:26:02;4.40;99.90
12746;DHT22;6437;53.686;10.030;2022-12-07T03:29:05;4.40;99.90
12746;DHT22;6437;53.686;10.030;2022-12-07T03:32:11;4.40;99.90
12746;DHT22;6437;53.686;10.030;2022-12-07T03:35:16;4.40;99.90
12746;DHT22;6437;53.686;10.030;2022-12-07T03:38:20;4.30;99.90
12746;DHT22;6437;53.686;10.030;2022-12-07T03:41:22;4.30;99.90
12746;DHT22;6437;53.686;10.030;2022-12-07T03:44:24;4.30;99.90
12746;DHT22;6437;53.686;10.030;2022-12-07T03:47:29;4.30;99.90
12746;DHT22;6437;53.686;10.030;2022-12-07T03:50:34;4.20;99.90
12746;DHT22;6437;53.686;10.030;2022-12-07T03:53:39;4.20;99.90
12746;DHT22;6437;53.686;10.030;2022-12-07T03:56:42;4.20;99.90
12746;DHT22;6437;53.686;10.030;2022-12-07T03:59:45;4.20;99.90
12746;DHT22;6437;53.686;10.030;2022-12-07T04:02:50;4.20;99.90
12746;DHT22;6437;53.686;10.030;2022-12-07T04:05:52;4.20;99.90
12746;DHT22;6437;53.686;10.030;2022-12-07T04:08:54;4.20;99.90
12746;DHT22;6437;53.686;10.030;2022-12-07T04:11:55;4.10;99.90
12746;DHT22;6437;53.686;10.030;2022-12-07T04:14:57;4.10;99.90
12746;DHT22;6437;53.686;10.030;2022-12-07T04:18:00;4.70;99.90
12746;DHT22;6437;53.686;10.030;2022-12-07T04:21:02;4.10;99.90
12746;DHT22;6437;53.686;10.030;2022-12-07T04:24:03;4.10;99.90
12746;DHT22;6437;53.686;10.030;2022-12-07T04:27:05;4.10;99.90
12746;DHT22;6437;53.686;10.030;2022-12-07T04:30:07;4.90;99.90
12746;DHT22;6437;53.686;10.030;2022-12-07T04:33:10;4.60;99.90
12746;DHT22;6437;53.686;10.030;2022-12-07T04:36:12;4.00;99.90
12746;DHT22;6437;53.686;10.030;2022-12-07T04:39:17;4.00;99.90
12746;DHT22;6437;53.686;10.030;2022-12-07T04:42:19;4.00;99.90
12746;DHT22;6437;53.686;10.030;2022-12-07T04:45:20;3.90;99.90
12746;DHT22;6437;53.686;10.030;2022-12-07T04:48:23;3.90;99.90
12746;DHT22;6437;53.686;10.030;2022-12-07T04:51:26;3.90;99.90
12746;DHT22;6437;53.686;10.030;2022-12-07T04:54:28;3.90;99.90
12746;DHT22;6437;53.686;10.030;2022-12-07T04:57:30;3.90;99.90
12746;DHT22;6437;53.686;10.030;2022-12-07T05:00:31;3.80;99.90
12746;DHT22;6437;53.686;10.030;2022-12-07T05:03:35;4.20;99.90
12746;DHT22;6437;53.686;10.030;2022-12-07T05:06:36;3.80;99.90
12746;DHT22;6437;53.686;10.030;2022-12-07T05:09:38;3.80;99.90
12746;DHT22;6437;53.686;10.030;2022-12-07T05:12:40;3.80;99.90
12746;DHT22;6437;53.686;10.030;2022-12-07T05:15:41;3.80;99.90
12746;DHT22;6437;53.686;10.030;2022-12-07T05:18:45;3.70;99.90
12746;DHT22;6437;53.686;10.030;2022-12-07T05:21:47;3.80;99.90
12746;DHT22;6437;53.686;10.030;2022-12-07T05:24:49;3.70;99.90
12746;DHT22;6437;53.686;10.030;2022-12-07T05:27:50;3.70;99.90
12746;DHT22;6437;53.686;10.030;2022-12-07T05:30:52;3.70;99.90
12746;DHT22;6437;53.686;10.030;2022-12-07T05:33:55;3.60;99.90
12746;DHT22;6437;53.686;10.030;2022-12-07T05:36:57;3.70;99.90
12746;DHT22;6437;53.686;10.030;2022-12-07T05:39:58;3.60;99.90
12746;DHT22;6437;53.686;10.030;2022-12-07T05:43:00;3.70;99.90
12746;DHT22;6437;53.686;10.030;2022-12-07T05:46:02;3.60;99.90
12746;DHT22;6437;53.686;10.030;2022-12-07T05:49:05;3.60;99.90
12746;DHT22;6437;53.686;10.030;2022-12-07T05:52:06;3.60;99.90
12746;DHT22;6437;53.686;10.030;2022-12-07T05:55:08;3.60;99.90
12746;DHT22;6437;53.686;10.030;2022-12-07T05:58:10;3.60;99.90
12746;DHT22;6437;53.686;10.030;2022-12-07T06:01:29;3.60;99.90
12746;DHT22;6437;53.686;10.030;2022-12-07T06:04:33;3.50;99.90
12746;DHT22;6437;53.686;10.030;2022-12-07T06:07:35;3.50;99.90
12746;DHT22;6437;53.686;10.030;2022-12-07T06:10:36;2.60;99.90
12746;DHT22;6437;53.686;10.030;2022-12-07T06:13:38;3.50;99.90
12746;DHT22;6437;53.686;10.030;2022-12-07T06:16:39;3.50;99.90
12746;DHT22;6437;53.686;10.030;2022-12-07T06:19:42;3.50;99.90
12746;DHT22;6437;53.686;10.030;2022-12-07T06:22:43;3.50;99.90
12746;DHT22;6437;53.686;10.030;2022-12-07T06:25:45;3.50;99.90
12746;DHT22;6437;53.686;10.030;2022-12-07T06:28:47;3.20;99.90
12746;DHT22;6437;53.686;10.030;2022-12-07T06:31:49;3.40;99.90
12746;DHT22;6437;53.686;10.030;2022-12-07T06:34:52;3.70;99.90
12746;DHT22;6437;53.686;10.030;2022-12-07T06:37:53;3.40;99.90
12746;DHT22;6437;53.686;10.030;2022-12-07T06:40:55;3.40;99.90
12746;DHT22;6437;53.686;10.030;2022-12-07T06:43:57;3.40;99.90
12746;DHT22;6437;53.686;10.030;2022-12-07T06:46:58;3.40;99.90
12746;DHT22;6437;53.686;10.030;2022-12-07T06:50:02;3.40;99.90
12746;DHT22;6437;53.686;10.030;2022-12-07T06:53:03;3.40;99.90
12746;DHT22;6437;53.686;10.030;2022-12-07T06:56:05;4.30;99.90
12746;DHT22;6437;53.686;10.030;2022-12-07T06:59:07;3.40;99.90
12746;DHT22;6437;53.686;10.030;2022-12-07T07:02:09;3.40;99.90
12746;DHT22;6437;53.686;10.030;2022-12-07T07:05:12;3.40;99.90
12746;DHT22;6437;53.686;10.030;2022-12-07T07:08:14;3.40;99.90
12746;DHT22;6437;53.686;10.030;2022-12-07T07:11:15;3.40;99.90
12746;DHT22;6437;53.686;10.030;2022-12-07T07:14:17;3.40;99.90
12746;DHT22;6437;53.686;10.030;2022-12-07T07:17:21;3.40;99.90
12746;DHT22;6437;53.686;10.030;2022-12-07T07:20:24;3.50;99.90
12746;DHT22;6437;53.686;10.030;2022-12-07T07:23:26;3.40;99.90
12746;DHT22;6437;53.686;10.030;2022-12-07T07:26:27;3.40;99.90
12746;DHT22;6437;53.686;10.030;2022-12-07T07:29:30;3.50;99.90
12746;DHT22;6437;53.686;10.030;2022-12-07T07:32:32;3.50;99.90
12746;DHT22;6437;53.686;10.030;2022-12-07T07:35:35;3.50;99.90
12746;DHT22;6437;53.686;10.030;2022-12-07T07:38:36;3.50;99.90
12746;DHT22;6437;53.686;10.030;2022-12-07T07:41:38;3.80;99.90
12746;DHT22;6437;53.686;10.030;2022-12-07T07:44:40;3.50;99.90
12746;DHT22;6437;53.686;10.030;2022-12-07T07:47:41;3.50;99.90
12746;DHT22;6437;53.686;10.030;2022-12-07T07:50:44;3.50;99.90
12746;DHT22;6437;53.686;10.030;2022-12-07T07:53:46;3.50;99.90
12746;DHT22;6437;53.686;10.030;2022-12-07T07:56:48;3.60;99.90
12746;DHT22;6437;53.686;10.030;2022-12-07T07:59:49;3.60;99.90
12746;DHT22;6437;53.686;10.030;2022-12-07T08:02:51;3.60;99.90
12746;DHT22;6437;53.686;10.030;2022-12-07T08:05:54;3.60;99.90
12746;DHT22;6437;53.686;10.030;2022-12-07T08:08:56;3.60;99.90
12746;DHT22;6437;53.686;10.030;2022-12-07T08:11:58;3.70;99.90
12746;DHT22;6437;53.686;10.030;2022-12-07T08:15:00;3.70;99.90
12746;DHT22;6437;53.686;10.030;2022-12-07T08:18:02;3.70;99.90
12746;DHT22;6437;53.686;10.030;2022-12-07T08:21:06;3.70;99.90
12746;DHT22;6437;53.686;10.030;2022-12-07T08:24:08;3.70;99.90
12746;DHT22;6437;53.686;10.030;2022-12-07T08:27:09;3.70;99.90
12746;DHT22;6437;53.686;10.030;2022-12-07T08:30:11;3.80;99.90
12746;DHT22;6437;53.686;10.030;2022-12-07T08:33:13;3.80;99.90
12746;DHT22;6437;53.686;10.030;2022-12-07T08:36:16;3.80;99.90
12746;DHT22;6437;53.686;10.030;2022-12-07T08:39:18;3.90;99.90
12746;DHT22;6437;53.686;10.030;2022-12-07T08:42:19;3.90;99.90
12746;DHT22;6437;53.686;10.030;2022-12-07T08:45:23;3.90;99.90
12746;DHT22;6437;53.686;10.030;2022-12-07T08:48:25;4.60;99.90
12746;DHT22;6437;53.686;10.030;2022-12-07T08:51:28;3.90;99.90
12746;DHT22;6437;53.686;10.030;2022-12-07T08:54:30;4.00;99.90
12746;DHT22;6437;53.686;10.030;2022-12-07T08:57:31;3.90;99.90
12746;DHT22;6437;53.686;10.030;2022-12-07T09:00:34;4.00;99.90
12746;DHT22;6437;53.686;10.030;2022-12-07T09:03:36;4.00;99.90
12746;DHT22;6437;53.686;10.030;2022-12-07T09:06:40;4.00;99.90
12746;DHT22;6437;53.686;10.030;2022-12-07T09:09:42;4.00;99.90
12746;DHT22;6437;53.686;10.030;2022-12-07T09:12:43;4.10;99.90
12746;DHT22;6437;53.686;10.030;2022-12-07T09:15:45;4.10;99.90
12746;DHT22;6437;53.686;10.030;2022-12-07T09:18:47;4.10;99.90
12746;DHT22;6437;53.686;10.030;2022-12-07T09:21:50;4.10;99.90
12746;DHT22;6437;53.686;10.030;2022-12-07T09:24:51;4.10;99.90
12746;DHT22;6437;53.686;10.030;2022-12-07T09:27:56;4.20;99.90
12746;DHT22;6437;53.686;10.030;2022-12-07T09:30:58;4.10;99.90
12746;DHT22;6437;53.686;10.030;2022-12-07T09:34:00;3.60;99.90
12746;DHT22;6437;53.686;10.030;2022-12-07T09:37:03;4.20;99.90
12746;DHT22;6437;53.686;10.030;2022-12-07T09:40:05;4.20;99.90
12746;DHT22;6437;53.686;10.030;2022-12-07T09:43:11;4.30;99.90
12746;DHT22;6437;53.686;10.030;2022-12-07T09:46:13;4.30;99.90
12746;DHT22;6437;53.686;10.030;2022-12-07T09:49:18;4.30;99.90
12746;DHT22;6437;53.686;10.030;2022-12-07T09:52:27;4.30;99.90
12746;DHT22;6437;53.686;10.030;2022-12-07T09:55:29;4.40;99.90
12746;DHT22;6437;53.686;10.030;2022-12-07T09:58:32;4.40;99.90
12746;DHT22;6437;53.686;10.030;2022-12-07T10:01:34;4.40;99.90
12746;DHT22;6437;53.686;10.030;2022-12-07T10:04:36;4.40;99.90
12746;DHT22;6437;53.686;10.030;2022-12-07T10:07:40;4.50;99.90
12746;DHT22;6437;53.686;10.030;2022-12-07T10:10:41;4.50;99.90
12746;DHT22;6437;53.686;10.030;2022-12-07T10:13:44;4.60;99.90
12746;DHT22;6437;53.686;10.030;2022-12-07T10:16:48;4.50;99.90
12746;DHT22;6437;53.686;10.030;2022-12-07T10:19:49;4.60;99.90
12746;DHT22;6437;53.686;10.030;2022-12-07T10:22:56;4.60;99.90
12746;DHT22;6437;53.686;10.030;2022-12-07T10:25:58;4.70;99.90
12746;DHT22;6437;53.686;10.030;2022-12-07T10:29:00;4.70;99.90
12746;DHT22;6437;53.686;10.030;2022-12-07T10:32:04;4.70;99.90
12746;DHT22;6437;53.686;10.030;2022-12-07T10:35:23;4.70;99.90
12746;DHT22;6437;53.686;10.030;2022-12-07T10:38:27;4.80;99.90
12746;DHT22;6437;53.686;10.030;2022-12-07T10:41:30;4.80;99.90
12746;DHT22;6437;53.686;10.030;2022-12-07T10:44:32;4.80;99.90
12746;DHT22;6437;53.686;10.030;2022-12-07T10:47:34;4.80;99.90
12746;DHT22;6437;53.686;10.030;2022-12-07T10:54:01;4.90;99.90
12746;DHT22;6437;53.686;10.030;2022-12-07T10:57:08;4.90;99.90
12746;DHT22;6437;53.686;10.030;2022-12-07T11:00:15;5.00;99.90
12746;DHT22;6437;53.686;10.030;2022-12-07T11:06:39;5.00;99.90
12746;DHT22;6437;53.686;10.030;2022-12-07T11:09:55;5.00;99.90
12746;DHT22;6437;53.686;10.030;2022-12-07T11:13:08;5.10;99.90
12746;DHT22;6437;53.686;10.030;2022-12-07T11:16:16;5.10;99.90
12746;DHT22;6437;53.686;10.030;2022-12-07T11:19:24;5.20;99.90
12746;DHT22;6437;53.686;10.030;2022-12-07T11:22:31;5.20;99.90
12746;DHT22;6437;53.686;10.030;2022-12-07T11:25:38;5.20;99.90
12746;DHT22;6437;53.686;10.030;2022-12-07T11:28:49;5.20;99.90
12746;DHT22;6437;53.686;10.030;2022-12-07T11:31:58;5.30;99.90
12746;DHT22;6437;53.686;10.030;2022-12-07T11:35:05;5.30;99.90
12746;DHT22;6437;53.686;10.030;2022-12-07T11:38:10;5.30;99.90
12746;DHT22;6437;53.686;10.030;2022-12-07T11:41:14;5.30;99.90
12746;DHT22;6437;53.686;10.030;2022-12-07T11:44:24;5.30;99.90
12746;DHT22;6437;53.686;10.030;2022-12-07T11:47:29;5.40;99.90
12746;DHT22;6437;53.686;10.030;2022-12-07T11:50:33;5.40;99.90
12746;DHT22;6437;53.686;10.030;2022-12-07T11:53:36;5.40;99.90
12746;DHT22;6437;53.686;10.030;2022-12-07T11:56:40;5.40;99.90
12746;DHT22;6437;53.686;10.030;2022-12-07T11:59:42;5.50;99.90
12746;DHT22;6437;53.686;10.030;2022-12-07T12:02:48;5.50;99.90
12746;DHT22;6437;53.686;10.030;2022-12-07T12:05:50;5.50;99.90
12746;DHT22;6437;53.686;10.030;2022-12-07T12:08:53;5.50;99.90
12746;DHT22;6437;53.686;10.030;2022-12-07T12:12:06;5.60;99.90
12746;DHT22;6437;53.686;10.030;2022-12-07T12:15:22;5.60;99.90
12746;DHT22;6437;53.686;10.030;2022-12-07T12:18:27;5.70;99.90
12746;DHT22;6437;53.686;10.030;2022-12-07T12:21:34;5.70;99.90
12746;DHT22;6437;53.686;10.030;2022-12-07T12:24:36;5.70;99.90
12746;DHT22;6437;53.686;10.030;2022-12-07T12:27:41;5.80;99.90
12746;DHT22;6437;53.686;10.030;2022-12-07T12:30:47;5.80;99.90
12746;DHT22;6437;53.686;10.030;2022-12-07T12:40:43;5.90;99.90
12746;DHT22;6437;53.686;10.030;2022-12-07T12:43:47;5.90;99.90
12746;DHT22;6437;53.686;10.030;2022-12-07T12:46:52;6.00;99.90
12746;DHT22;6437;53.686;10.030;2022-12-07T12:53:23;6.00;99.90
12746;DHT22;6437;53.686;10.030;2022-12-07T12:56:32;5.30;99.90
12746;DHT22;6437;53.686;10.030;2022-12-07T12:59:39;6.00;99.90
12746;DHT22;6437;53.686;10.030;2022-12-07T13:02:47;6.00;99.90
12746;DHT22;6437;53.686;10.030;2022-12-07T13:05:49;6.00;99.90
12746;DHT22;6437;53.686;10.030;2022-12-07T13:09:17;6.10;99.90
12746;DHT22;6437;53.686;10.030;2022-12-07T13:12:23;6.10;99.90
12746;DHT22;6437;53.686;10.030;2022-12-07T13:15:32;6.10;99.90
12746;DHT22;6437;53.686;10.030;2022-12-07T13:18:34;6.10;99.90
12746;DHT22;6437;53.686;10.030;2022-12-07T13:21:43;6.10;99.90
12746;DHT22;6437;53.686;10.030;2022-12-07T13:24:45;6.10;99.90
12746;DHT22;6437;53.686;10.030;2022-12-07T13:27:48;6.10;99.90
12746;DHT22;6437;53.686;10.030;2022-12-07T13:31:09;6.10;99.90
12746;DHT22;6437;53.686;10.030;2022-12-07T13:34:28;6.10;99.90
12746;DHT22;6437;53.686;10.030;2022-12-07T13:37:30;6.10;99.90
12746;DHT22;6437;53.686;10.030;2022-12-07T13:40:34;6.20;99.90
12746;DHT22;6437;53.686;10.030;2022-12-07T13:43:42;6.10;99.90
12746;DHT22;6437;53.686;10.030;2022-12-07T13:46:46;6.20;99.90
12746;DHT22;6437;53.686;10.030;2022-12-07T13:49:52;6.40;99.90
12746;DHT22;6437;53.686;10.030;2022-12-07T13:52:55;6.60;99.90
12746;DHT22;6437;53.686;10.030;2022-12-07T13:55:57;6.60;99.90
12746;DHT22;6437;53.686;10.030;2022-12-07T13:58:59;6.60;99.90
12746;DHT22;6437;53.686;10.030;2022-12-07T14:02:02;6.50;99.90
12746;DHT22;6437;53.686;10.030;2022-12-07T14:05:07;6.40;99.90
12746;DHT22;6437;53.686;10.030;2022-12-07T14:08:21;6.30;99.90
12746;DHT22;6437;53.686;10.030;2022-12-07T14:11:23;6.20;99.90
12746;DHT22;6437;53.686;10.030;2022-12-07T14:14:25;6.20;99.90
12746;DHT22;6437;53.686;10.030;2022-12-07T14:17:29;6.10;99.90
12746;DHT22;6437;53.686;10.030;2022-12-07T14:20:31;6.00;99.90
12746;DHT22;6437;53.686;10.030;2022-12-07T14:23:33;6.00;99.90
12746;DHT22;6437;53.686;10.030;2022-12-07T14:29:47;5.80;99.90
12746;DHT22;6437;53.686;10.030;2022-12-07T14:32:58;5.80;99.90
12746;DHT22;6437;53.686;10.030;2022-12-07T14:36:01;5.80;99.90
12746;DHT22;6437;53.686;10.030;2022-12-07T14:39:04;5.70;99.90
12746;DHT22;6437;53.686;10.030;2022-12-07T14:42:10;5.70;99.90
12746;DHT22;6437;53.686;10.030;2022-12-07T14:45:15;5.60;99.90
12746;DHT22;6437;53.686;10.030;2022-12-07T14:48:18;5.60;99.90
12746;DHT22;6437;53.686;10.030;2022-12-07T14:51:20;5.50;99.90
12746;DHT22;6437;53.686;10.030;2022-12-07T14:54:30;5.50;99.90
12746;DHT22;6437;53.686;10.030;2022-12-07T14:57:32;5.40;99.90
12746;DHT22;6437;53.686;10.030;2022-12-07T15:00:35;5.40;99.90
12746;DHT22;6437;53.686;10.030;2022-12-07T15:03:37;5.30;99.90
12746;DHT22;6437;53.686;10.030;2022-12-07T15:06:39;5.30;99.90
12746;DHT22;6437;53.686;10.030;2022-12-07T15:09:44;5.20;99.90
12746;DHT22;6437;53.686;10.030;2022-12-07T15:12:46;5.50;99.90
12746;DHT22;6437;53.686;10.030;2022-12-07T15:15:47;5.10;99.90
12746;DHT22;6437;53.686;10.030;2022-12-07T15:18:51;5.10;99.90
12746;DHT22;6437;53.686;10.030;2022-12-07T15:21:52;5.10;99.90
12746;DHT22;6437;53.686;10.030;2022-12-07T15:24:54;5.00;99.90
12746;DHT22;6437;53.686;10.030;2022-12-07T15:27:56;5.00;99.90
12746;DHT22;6437;53.686;10.030;2022-12-07T15:30:57;4.30;99.90
12746;DHT22;6437;53.686;10.030;2022-12-07T15:34:00;4.80;99.90
12746;DHT22;6437;53.686;10.030;2022-12-07T15:37:02;4.70;99.90
12746;DHT22;6437;53.686;10.030;2022-12-07T15:40:04;4.80;99.90
12746;DHT22;6437;53.686;10.030;2022-12-07T15:43:08;4.70;99.90
12746;DHT22;6437;53.686;10.030;2022-12-07T15:46:31;3.90;99.90
12746;DHT22;6437;53.686;10.030;2022-12-07T15:49:33;4.60;99.90
12746;DHT22;6437;53.686;10.030;2022-12-07T15:52:38;4.60;99.90
12746;DHT22;6437;53.686;10.030;2022-12-07T15:55:40;4.50;99.90
12746;DHT22;6437;53.686;10.030;2022-12-07T15:58:41;4.50;99.90
12746;DHT22;6437;53.686;10.030;2022-12-07T16:01:43;4.40;99.90
12746;DHT22;6437;53.686;10.030;2022-12-07T16:04:46;4.30;99.90
12746;DHT22;6437;53.686;10.030;2022-12-07T16:07:48;4.30;99.90
12746;DHT22;6437;53.686;10.030;2022-12-07T16:10:49;4.30;99.90
12746;DHT22;6437;53.686;10.030;2022-12-07T16:13:51;4.20;99.90
12746;DHT22;6437;53.686;10.030;2022-12-07T16:16:53;4.30;99.90
12746;DHT22;6437;53.686;10.030;2022-12-07T16:19:56;4.10;99.90
12746;DHT22;6437;53.686;10.030;2022-12-07T16:22:58;4.10;99.90
12746;DHT22;6437;53.686;10.030;2022-12-07T16:26:03;4.10;99.90
12746;DHT22;6437;53.686;10.030;2022-12-07T16:29:05;4.10;99.90
12746;DHT22;6437;53.686;10.030;2022-12-07T16:32:07;4.00;99.90
12746;DHT22;6437;53.686;10.030;2022-12-07T16:35:10;4.00;99.90
12746;DHT22;6437;53.686;10.030;2022-12-07T16:38:12;3.90;99.90
12746;DHT22;6437;53.686;10.030;2022-12-07T16:41:13;3.90;99.90
12746;DHT22;6437;53.686;10.030;2022-12-07T16:44:15;3.90;99.90
12746;DHT22;6437;53.686;10.030;2022-12-07T16:47:17;3.90;99.90
12746;DHT22;6437;53.686;10.030;2022-12-07T16:50:20;3.90;99.90
12746;DHT22;6437;53.686;10.030;2022-12-07T16:53:22;3.90;99.90
12746;DHT22;6437;53.686;10.030;2022-12-07T16:56:23;3.90;99.90
12746;DHT22;6437;53.686;10.030;2022-12-07T16:59:26;3.80;99.90
12746;DHT22;6437;53.686;10.030;2022-12-07T17:02:28;3.80;99.90
12746;DHT22;6437;53.686;10.030;2022-12-07T17:05:31;3.80;99.90
12746;DHT22;6437;53.686;10.030;2022-12-07T17:08:33;3.80;99.90
12746;DHT22;6437;53.686;10.030;2022-12-07T17:11:35;4.60;99.90
12746;DHT22;6437;53.686;10.030;2022-12-07T17:14:37;3.70;99.90
12746;DHT22;6437;53.686;10.030;2022-12-07T17:17:56;3.70;99.90
12746;DHT22;6437;53.686;10.030;2022-12-07T17:21:03;3.70;99.90
12746;DHT22;6437;53.686;10.030;2022-12-07T17:24:05;3.70;99.90
12746;DHT22;6437;53.686;10.030;2022-12-07T17:27:07;3.70;99.90
12746;DHT22;6437;53.686;10.030;2022-12-07T17:30:09;3.70;99.90
12746;DHT22;6437;53.686;10.030;2022-12-07T17:33:11;3.70;99.90
12746;DHT22;6437;53.686;10.030;2022-12-07T17:36:15;3.70;99.90
12746;DHT22;6437;53.686;10.030;2022-12-07T17:39:17;3.60;99.90
12746;DHT22;6437;53.686;10.030;2022-12-07T17:42:19;3.60;99.90
12746;DHT22;6437;53.686;10.030;2022-12-07T17:45:39;3.60;99.90
12746;DHT22;6437;53.686;10.030;2022-12-07T17:48:41;3.60;99.90
12746;DHT22;6437;53.686;10.030;2022-12-07T17:51:44;3.60;99.90
12746;DHT22;6437;53.686;10.030;2022-12-07T17:55:03;3.50;99.90
12746;DHT22;6437;53.686;10.030;2022-12-07T17:58:05;3.50;99.90
12746;DHT22;6437;53.686;10.030;2022-12-07T18:01:07;3.50;99.90
12746;DHT22;6437;53.686;10.030;2022-12-07T18:04:09;3.50;99.90
12746;DHT22;6437;53.686;10.030;2022-12-07T18:07:12;3.50;99.90
12746;DHT22;6437;53.686;10.030;2022-12-07T18:10:14;3.50;99.90
12746;DHT22;6437;53.686;10.030;2022-12-07T18:13:16;3.50;99.90
12746;DHT22;6437;53.686;10.030;2022-12-07T18:16:35;3.50;99.90
12746;DHT22;6437;53.686;10.030;2022-12-07T18:19:37;3.50;99.90
12746;DHT22;6437;53.686;10.030;2022-12-07T18:22:40;3.40;99.90
12746;DHT22;6437;53.686;10.030;2022-12-07T18:25:45;3.40;99.90
12746;DHT22;6437;53.686;10.030;2022-12-07T18:28:47;3.40;99.90
12746;DHT22;6437;53.686;10.030;2022-12-07T18:31:49;3.40;99.90
12746;DHT22;6437;53.686;10.030;2022-12-07T18:34:51;3.40;99.90
12746;DHT22;6437;53.686;10.030;2022-12-07T18:37:54;3.40;99.90
12746;DHT22;6437;53.686;10.030;2022-12-07T18:40:56;2.90;99.90
12746;DHT22;6437;53.686;10.030;2022-12-07T18:43:57;3.30;99.90
12746;DHT22;6437;53.686;10.030;2022-12-07T18:46:59;3.30;99.90
12746;DHT22;6437;53.686;10.030;2022-12-07T18:50:01;3.30;99.90
12746;DHT22;6437;53.686;10.030;2022-12-07T18:53:04;3.20;99.90
12746;DHT22;6437;53.686;10.030;2022-12-07T18:56:06;3.20;99.90
12746;DHT22;6437;53.686;10.030;2022-12-07T18:59:10;3.20;99.90
12746;DHT22;6437;53.686;10.030;2022-12-07T19:02:31;3.20;99.90
12746;DHT22;6437;53.686;10.030;2022-12-07T19:05:32;3.20;99.90
12746;DHT22;6437;53.686;10.030;2022-12-07T19:08:35;3.20;99.90
12746;DHT22;6437;53.686;10.030;2022-12-07T19:11:37;3.10;99.90
12746;DHT22;6437;53.686;10.030;2022-12-07T19:14:50;3.10;99.90
12746;DHT22;6437;53.686;10.030;2022-12-07T19:17:54;3.10;99.90
12746;DHT22;6437;53.686;10.030;2022-12-07T19:20:55;3.10;99.90
12746;DHT22;6437;53.686;10.030;2022-12-07T19:24:01;3.10;99.90
12746;DHT22;6437;53.686;10.030;2022-12-07T19:27:03;3.10;99.90
12746;DHT22;6437;53.686;10.030;2022-12-07T19:30:05;3.10;99.90
12746;DHT22;6437;53.686;10.030;2022-12-07T19:33:09;3.10;99.90
12746;DHT22;6437;53.686;10.030;2022-12-07T19:36:10;3.10;99.90
12746;DHT22;6437;53.686;10.030;2022-12-07T19:39:13;3.10;99.90
12746;DHT22;6437;53.686;10.030;2022-12-07T19:42:15;3.10;99.90
12746;DHT22;6437;53.686;10.030;2022-12-07T19:45:16;3.10;99.90
12746;DHT22;6437;53.686;10.030;2022-12-07T19:48:18;3.10;99.90
12746;DHT22;6437;53.686;10.030;2022-12-07T19:51:20;3.10;99.90
12746;DHT22;6437;53.686;10.030;2022-12-07T19:54:23;3.00;99.90
12746;DHT22;6437;53.686;10.030;2022-12-07T19:57:25;3.00;99.90